Time;durP1;ratioP1;P1;durP2;ratioP2;P2;SDS_P1;SDS_P2;PMS_P1;PMS_P2;Temp;Humidity;BMP_temperature;BMP_pressure;BME280_temperature;BME280_humidity;BME280_pressure;Samples;Min_cycle;Max_cycle;Signal;HPM_P1;HPM_P2
2021/04/16 00:02:05;;;;;;;5.53;4.57;;;4.30;99.30;;;;;;5003831;28;20228;-82
2021/04/16 00:04:32;;;;;;;4.97;4.50;;;4.30;99.80;;;;;;5009991;28;20230;-83
2021/04/16 00:07:00;;;;;;;6.15;4.90;;;4.30;99.80;;;;;;5000283;28;20662;-83
2021/04/16 00:09:28;;;;;;;5.30;4.63;;;4.30;99.70;;;;;;5006808;28;20239;-83
2021/04/16 00:11:56;;;;;;;5.15;4.68;;;4.30;99.50;;;;;;4988325;28;20234;-82
2021/04/16 00:14:23;;;;;;;4.68;4.28;;;4.30;99.40;;;;;;4998258;28;20989;-84
2021/04/16 00:16:50;;;;;;;7.68;5.18;;;4.40;99.70;;;;;;4999155;28;20644;-82
2021/04/16 00:19:19;;;;;;;8.48;5.05;;;4.40;99.30;;;;;;5003895;28;20246;-83
2021/04/16 00:21:46;;;;;;;4.70;4.28;;;4.40;99.40;;;;;;5010243;28;20244;-83
2021/04/16 00:24:14;;;;;;;8.20;5.00;;;4.40;99.40;;;;;;5005466;28;20232;-84
2021/04/16 00:26:42;;;;;;;9.10;5.10;;;4.40;99.60;;;;;;5002663;28;20250;-85
2021/04/16 00:29:09;;;;;;;7.35;5.10;;;4.40;99.60;;;;;;5011473;28;20226;-83
2021/04/16 00:31:37;;;;;;;7.55;4.47;;;4.40;99.80;;;;;;4994977;28;20241;-82
2021/04/16 00:34:04;;;;;;;7.00;4.72;;;4.40;99.80;;;;;;5005000;28;20221;-81
2021/04/16 00:36:32;;;;;;;4.65;4.05;;;4.40;99.80;;;;;;4997769;28;20252;-84
2021/04/16 00:38:59;;;;;;;6.20;4.55;;;4.40;99.80;;;;;;5000080;28;20237;-83
2021/04/16 00:41:29;;;;;;;7.72;5.22;;;4.40;99.80;;;;;;4987307;28;20309;-80
2021/04/16 00:43:56;;;;;;;6.22;5.35;;;4.40;99.80;;;;;;5008327;28;20235;-81
2021/04/16 00:46:32;;;;;;;5.85;5.00;;;4.40;99.80;;;;;;4980141;28;20229;-82
2021/04/16 00:49:02;;;;;;;8.13;5.05;;;4.40;99.80;;;;;;4999714;28;20689;-82
2021/04/16 00:51:33;;;;;;;6.60;4.80;;;4.40;99.80;;;;;;4996892;28;20313;-82
2021/04/16 00:54:01;;;;;;;5.93;5.25;;;4.30;99.80;;;;;;5014001;28;20230;-80
2021/04/16 00:56:30;;;;;;;8.07;6.00;;;4.40;99.80;;;;;;4989593;28;20626;-81
2021/04/16 00:58:58;;;;;;;10.30;5.20;;;4.30;99.80;;;;;;4983679;28;21089;-82
2021/04/16 01:01:26;;;;;;;11.53;5.10;;;4.30;99.80;;;;;;4992300;28;20232;-81
2021/04/16 01:03:53;;;;;;;8.65;5.20;;;4.30;99.80;;;;;;5001277;28;21050;-82
2021/04/16 01:06:22;;;;;;;8.02;4.95;;;4.40;99.80;;;;;;4992528;28;20312;-84
2021/04/16 01:08:51;;;;;;;4.95;4.35;;;4.40;99.80;;;;;;4991028;28;20230;-83
2021/04/16 01:11:18;;;;;;;6.03;5.25;;;4.50;99.80;;;;;;4979185;28;20664;-83
2021/04/16 01:13:47;;;;;;;6.07;4.90;;;4.50;99.80;;;;;;4981501;28;20264;-82
2021/04/16 01:16:18;;;;;;;5.90;5.07;;;4.50;99.80;;;;;;4992487;28;20235;-83
2021/04/16 01:18:49;;;;;;;5.53;4.80;;;4.40;99.80;;;;;;4986755;28;20531;-82
2021/04/16 01:21:20;;;;;;;6.13;5.53;;;4.50;99.80;;;;;;5003918;28;20562;-82
2021/04/16 01:23:55;;;;;;;6.13;5.40;;;4.50;99.80;;;;;;5008967;28;20593;-81
2021/04/16 01:26:33;;;;;;;8.48;5.90;;;4.60;99.80;;;;;;4996860;28;20476;-83
2021/04/16 01:29:00;;;;;;;8.97;5.83;;;4.50;99.80;;;;;;5009091;28;21053;-82
2021/04/16 01:31:29;;;;;;;8.73;5.63;;;4.60;99.80;;;;;;4988459;28;20488;-81
2021/04/16 01:33:57;;;;;;;6.70;5.32;;;4.60;99.80;;;;;;5010362;28;20234;-82
2021/04/16 01:36:27;;;;;;;6.90;5.80;;;4.60;99.80;;;;;;5007872;28;20233;-81
2021/04/16 01:38:54;;;;;;;7.57;5.70;;;4.50;99.80;;;;;;5006525;28;20232;-81
2021/04/16 01:41:25;;;;;;;6.43;4.65;;;4.50;99.80;;;;;;5003725;28;20450;-82
2021/04/16 01:43:56;;;;;;;6.45;5.45;;;4.50;99.80;;;;;;4990370;28;20233;-82
2021/04/16 01:46:24;;;;;;;13.20;5.88;;;4.50;99.80;;;;;;5011860;28;20230;-82
2021/04/16 01:48:53;;;;;;;5.45;4.95;;;4.50;99.80;;;;;;4989805;28;20561;-84
2021/04/16 01:51:24;;;;;;;6.63;5.45;;;4.50;99.80;;;;;;4965734;28;20916;-84
2021/04/16 01:54:04;;;;;;;6.85;5.40;;;4.50;99.80;;;;;;4988260;28;20235;-83
2021/04/16 01:56:32;;;;;;;6.35;5.25;;;4.50;99.80;;;;;;4973728;28;20250;-84
2021/04/16 01:58:59;;;;;;;7.28;5.47;;;4.50;99.80;;;;;;4980194;28;20236;-84
2021/04/16 02:01:26;;;;;;;7.40;6.00;;;4.50;99.80;;;;;;4977641;28;20229;-81
2021/04/16 02:03:53;;;;;;;6.03;5.43;;;4.50;99.80;;;;;;4993010;28;20213;-82
2021/04/16 02:06:20;;;;;;;8.02;5.43;;;4.60;99.80;;;;;;4995366;28;20226;-82
2021/04/16 02:08:47;;;;;;;6.45;4.70;;;4.60;99.80;;;;;;4988753;28;20202;-83
2021/04/16 02:11:14;;;;;;;7.45;5.78;;;4.50;99.80;;;;;;4994021;28;20203;-84
2021/04/16 02:13:42;;;;;;;7.32;5.93;;;4.50;99.80;;;;;;4994290;28;20369;-82
2021/04/16 02:16:09;;;;;;;7.32;5.97;;;4.50;99.80;;;;;;4963503;28;20234;-82
2021/04/16 02:18:36;;;;;;;7.03;5.78;;;4.50;99.80;;;;;;4981293;28;20312;-81
2021/04/16 02:21:03;;;;;;;10.18;6.50;;;4.40;99.80;;;;;;5004224;28;20230;-81
2021/04/16 02:23:30;;;;;;;6.40;5.65;;;4.50;99.80;;;;;;5006123;28;20237;-81
2021/04/16 02:25:58;;;;;;;6.70;5.15;;;4.50;99.80;;;;;;4997527;28;20245;-81
2021/04/16 02:28:25;;;;;;;6.73;5.50;;;4.50;99.80;;;;;;5006225;28;20304;-81
2021/04/16 02:30:53;;;;;;;7.63;5.45;;;4.60;99.80;;;;;;5010167;28;20472;-82
2021/04/16 02:33:20;;;;;;;6.03;5.53;;;4.60;99.80;;;;;;5008004;28;20608;-82
2021/04/16 02:35:47;;;;;;;6.30;5.22;;;4.50;99.80;;;;;;5009748;28;20560;-84
2021/04/16 02:38:14;;;;;;;7.22;6.00;;;4.50;99.80;;;;;;5011981;28;20233;-82
2021/04/16 02:40:41;;;;;;;6.27;5.00;;;4.50;99.80;;;;;;5011627;28;20241;-82
2021/04/16 02:43:08;;;;;;;7.78;5.50;;;4.50;99.80;;;;;;5010045;28;20492;-83
2021/04/16 02:45:35;;;;;;;7.40;5.10;;;4.60;99.80;;;;;;5006198;28;20226;-86
2021/04/16 02:48:03;;;;;;;10.50;4.40;;;4.50;99.80;;;;;;5003895;28;20853;-82
2021/04/16 02:50:31;;;;;;;5.30;4.40;;;4.50;99.80;;;;;;5007195;28;20696;-83
2021/04/16 02:52:58;;;;;;;6.35;4.45;;;4.50;99.80;;;;;;5010275;28;20234;-82
2021/04/16 02:55:25;;;;;;;8.27;4.55;;;4.40;99.80;;;;;;5012847;28;20237;-84
2021/04/16 02:57:53;;;;;;;6.45;4.45;;;4.40;99.80;;;;;;5013338;28;20225;-82
2021/04/16 03:00:23;;;;;;;5.63;5.03;;;4.40;99.80;;;;;;5011545;28;20226;-82
2021/04/16 03:02:50;;;;;;;5.18;4.47;;;4.30;99.80;;;;;;5009781;28;20348;-81
2021/04/16 03:05:19;;;;;;;6.90;4.10;;;4.40;99.80;;;;;;5009282;28;20287;-83
2021/04/16 03:07:46;;;;;;;6.78;5.00;;;4.40;99.80;;;;;;5011168;28;20501;-83
2021/04/16 03:10:16;;;;;;;6.45;4.28;;;4.40;99.80;;;;;;5012921;28;20234;-82
2021/04/16 03:12:43;;;;;;;5.95;4.65;;;4.30;99.80;;;;;;5005564;28;20268;-83
2021/04/16 03:15:11;;;;;;;5.25;4.75;;;4.30;99.80;;;;;;5013752;28;20234;-83
2021/04/16 03:17:38;;;;;;;6.57;4.75;;;4.30;99.80;;;;;;5015689;28;20313;-83
2021/04/16 03:20:09;;;;;;;6.15;4.68;;;4.20;99.80;;;;;;5012751;28;20303;-82
2021/04/16 03:22:37;;;;;;;10.68;4.68;;;4.10;99.80;;;;;;5010360;28;20332;-82
2021/04/16 03:25:05;;;;;;;11.60;5.28;;;4.00;99.80;;;;;;5007548;28;20243;-83
2021/04/16 03:27:32;;;;;;;6.57;5.10;;;3.90;99.80;;;;;;5012322;28;20226;-84
2021/04/16 03:29:59;;;;;;;5.60;4.80;;;3.90;99.80;;;;;;5012675;28;20232;-82
2021/04/16 03:32:28;;;;;;;6.10;4.75;;;3.90;99.80;;;;;;5013686;28;20745;-82
2021/04/16 03:34:56;;;;;;;9.30;4.80;;;3.80;99.80;;;;;;5010727;28;20233;-83
2021/04/16 03:37:23;;;;;;;8.15;4.85;;;3.80;99.80;;;;;;5012521;28;20477;-82
2021/04/16 03:39:51;;;;;;;7.20;5.50;;;3.80;99.80;;;;;;5011943;28;20226;-86
2021/04/16 03:42:18;;;;;;;6.32;5.20;;;3.80;99.80;;;;;;5011995;28;20597;-84
2021/04/16 03:44:45;;;;;;;11.18;4.88;;;3.80;99.80;;;;;;5012153;28;20233;-84
2021/04/16 03:47:12;;;;;;;6.68;5.55;;;3.80;99.80;;;;;;5009422;28;21240;-83
2021/04/16 03:49:39;;;;;;;9.13;5.75;;;3.80;99.80;;;;;;5009107;28;20222;-81
2021/04/16 03:52:07;;;;;;;7.50;5.53;;;3.80;99.80;;;;;;5015243;28;20229;-82
2021/04/16 03:54:34;;;;;;;6.57;5.50;;;3.80;99.80;;;;;;5011678;28;20226;-83
2021/04/16 03:57:02;;;;;;;9.00;5.57;;;3.80;99.80;;;;;;5013485;28;20229;-83
2021/04/16 03:59:29;;;;;;;6.78;5.43;;;3.80;99.80;;;;;;5011561;28;20248;-85
2021/04/16 04:01:56;;;;;;;7.32;5.95;;;3.90;99.80;;;;;;5011321;28;20225;-82
2021/04/16 04:04:23;;;;;;;7.38;5.20;;;3.90;99.80;;;;;;5015518;28;20230;-81
2021/04/16 04:06:51;;;;;;;6.60;5.85;;;3.90;99.80;;;;;;5010849;28;20232;-81
2021/04/16 04:09:18;;;;;;;6.68;5.97;;;4.00;99.80;;;;;;5011617;28;20226;-81
2021/04/16 04:11:50;;;;;;;8.95;5.88;;;4.00;99.80;;;;;;5011709;28;20257;-79
2021/04/16 04:14:18;;;;;;;7.90;6.50;;;4.00;99.80;;;;;;5012060;28;20247;-81
2021/04/16 04:16:53;;;;;;;11.20;6.05;;;4.00;99.80;;;;;;5014699;28;20234;-81
2021/04/16 04:19:22;;;;;;;7.13;5.70;;;4.00;99.80;;;;;;5012227;28;20229;-81
2021/04/16 04:21:50;;;;;;;7.13;6.43;;;4.00;99.80;;;;;;5012537;28;20226;-82
2021/04/16 04:24:17;;;;;;;6.93;5.97;;;4.00;99.80;;;;;;5011709;28;20236;-81
2021/04/16 04:26:45;;;;;;;6.95;5.80;;;4.00;99.80;;;;;;5010955;28;20234;-82
2021/04/16 04:29:13;;;;;;;8.43;6.45;;;4.00;99.80;;;;;;5013166;28;20249;-83
2021/04/16 04:31:47;;;;;;;8.27;6.00;;;4.10;99.80;;;;;;5011108;28;20233;-81
2021/04/16 04:34:16;;;;;;;7.47;5.95;;;4.10;99.80;;;;;;5013052;28;20238;-80
2021/04/16 04:36:43;;;;;;;8.52;5.70;;;4.20;99.80;;;;;;5011070;28;20239;-80
2021/04/16 04:39:12;;;;;;;11.82;6.05;;;4.20;99.80;;;;;;5011498;28;20229;-82
2021/04/16 04:41:39;;;;;;;9.00;6.45;;;4.20;99.80;;;;;;5013092;28;20254;-80
2021/04/16 04:44:07;;;;;;;8.32;5.95;;;4.20;99.80;;;;;;5011705;28;20226;-80
2021/04/16 04:46:34;;;;;;;6.72;5.95;;;4.20;99.80;;;;;;5011505;28;20313;-81
2021/04/16 04:49:03;;;;;;;6.20;5.60;;;4.20;99.80;;;;;;5011155;28;20222;-81
2021/04/16 04:51:30;;;;;;;6.45;5.80;;;4.20;99.80;;;;;;5010109;28;20231;-83
2021/04/16 04:53:57;;;;;;;8.70;5.80;;;4.20;99.80;;;;;;5006527;28;20226;-80
2021/04/16 04:56:24;;;;;;;6.63;5.18;;;4.20;99.80;;;;;;5008503;28;20705;-82
2021/04/16 04:58:51;;;;;;;7.65;6.03;;;4.20;99.80;;;;;;5009933;28;20312;-81
2021/04/16 05:01:18;;;;;;;7.72;5.70;;;4.10;99.80;;;;;;5009197;28;20232;-81
2021/04/16 05:03:45;;;;;;;7.63;6.25;;;4.10;99.80;;;;;;5017732;28;20239;-80
2021/04/16 05:06:13;;;;;;;7.00;5.70;;;4.10;99.80;;;;;;5008738;28;20729;-81
2021/04/16 05:08:40;;;;;;;6.63;5.03;;;4.00;99.80;;;;;;5011297;28;20226;-84
2021/04/16 05:11:08;;;;;;;6.20;5.00;;;4.10;99.80;;;;;;5008786;28;20300;-81
2021/04/16 05:13:35;;;;;;;5.85;5.25;;;4.20;99.80;;;;;;5007162;28;20226;-84
2021/04/16 05:16:03;;;;;;;5.72;4.85;;;4.20;99.80;;;;;;5011979;28;20247;-82
2021/04/16 05:18:31;;;;;;;8.35;5.50;;;4.20;99.80;;;;;;5010733;28;20241;-82
2021/04/16 05:20:58;;;;;;;6.93;5.10;;;4.20;99.80;;;;;;5011713;28;20239;-82
2021/04/16 05:23:26;;;;;;;5.00;4.40;;;4.30;99.80;;;;;;5010724;28;20483;-81
2021/04/16 05:25:53;;;;;;;6.95;4.40;;;4.30;99.80;;;;;;5011928;28;20230;-81
2021/04/16 05:28:20;;;;;;;7.03;4.15;;;4.40;99.80;;;;;;5010886;28;20246;-79
2021/04/16 05:30:47;;;;;;;5.68;4.05;;;4.40;99.80;;;;;;5007551;28;20228;-83
2021/04/16 05:33:16;;;;;;;6.30;4.10;;;4.40;99.80;;;;;;5010784;28;20245;-82
2021/04/16 05:35:43;;;;;;;4.30;3.80;;;4.50;99.80;;;;;;5009198;28;20462;-83
2021/04/16 05:38:10;;;;;;;4.17;3.40;;;4.50;99.80;;;;;;5010767;28;20232;-81
2021/04/16 05:40:38;;;;;;;3.15;2.83;;;4.50;99.80;;;;;;5005417;28;20471;-82
2021/04/16 05:43:05;;;;;;;3.73;3.43;;;4.50;99.80;;;;;;5009836;28;20229;-82
2021/04/16 05:45:32;;;;;;;3.35;3.08;;;4.50;99.80;;;;;;5012816;28;22079;-82
2021/04/16 05:48:00;;;;;;;5.20;3.40;;;4.60;99.80;;;;;;5010412;28;20225;-80
2021/04/16 05:50:27;;;;;;;4.68;3.35;;;4.60;99.80;;;;;;5014713;28;20238;-81
2021/04/16 05:52:54;;;;;;;3.47;2.72;;;4.70;99.80;;;;;;5009317;28;20297;-82
2021/04/16 05:55:22;;;;;;;3.58;3.03;;;4.70;99.80;;;;;;5010560;28;20265;-84
2021/04/16 05:57:49;;;;;;;3.60;2.85;;;4.80;99.80;;;;;;5007834;28;20663;-82
2021/04/16 06:00:17;;;;;;;3.25;2.70;;;4.90;99.80;;;;;;5012037;28;20236;-82
2021/04/16 06:02:44;;;;;;;2.75;2.55;;;5.00;99.60;;;;;;5010051;28;20239;-82
2021/04/16 06:05:14;;;;;;;3.90;3.50;;;5.00;99.30;;;;;;5010969;28;20230;-81
2021/04/16 06:07:41;;;;;;;4.35;3.00;;;4.90;99.60;;;;;;4996882;28;20232;-81
2021/04/16 06:10:10;;;;;;;2.80;2.30;;;5.00;99.20;;;;;;5012978;28;20244;-82
2021/04/16 06:12:38;;;;;;;3.42;3.05;;;5.10;99.10;;;;;;5005398;28;20297;-81
2021/04/16 06:15:09;;;;;;;2.93;2.67;;;5.10;99.00;;;;;;5012049;28;20298;-81
2021/04/16 06:17:36;;;;;;;2.13;2.03;;;5.10;99.70;;;;;;5010330;28;20469;-82
2021/04/16 06:20:05;;;;;;;4.47;2.30;;;5.20;98.50;;;;;;5011398;28;22654;-83
2021/04/16 06:22:32;;;;;;;2.70;2.50;;;5.30;98.60;;;;;;5008851;28;20282;-80
2021/04/16 06:24:59;;;;;;;3.35;2.60;;;5.40;98.00;;;;;;5010066;28;20218;-85
2021/04/16 06:27:26;;;;;;;4.50;3.03;;;5.40;98.10;;;;;;5013551;28;20309;-83
2021/04/16 06:29:53;;;;;;;3.83;2.40;;;5.50;97.90;;;;;;5009237;28;20469;-84
2021/04/16 06:32:22;;;;;;;2.85;2.40;;;5.60;97.00;;;;;;5008694;28;20222;-84
2021/04/16 06:34:51;;;;;;;2.17;1.90;;;5.70;96.50;;;;;;5009956;28;20750;-82
2021/04/16 06:37:18;;;;;;;2.00;1.83;;;5.80;96.00;;;;;;5009112;28;20466;-82
2021/04/16 06:39:46;;;;;;;3.90;2.40;;;5.80;95.40;;;;;;5009063;28;21076;-84
2021/04/16 06:42:17;;;;;;;4.67;2.60;;;5.90;95.10;;;;;;5011135;28;20486;-86
2021/04/16 06:44:47;;;;;;;2.63;2.23;;;6.00;94.80;;;;;;4999718;28;20497;-84
2021/04/16 06:47:19;;;;;;;2.27;2.07;;;6.00;95.20;;;;;;5004610;28;20457;-85
2021/04/16 06:49:48;;;;;;;2.60;2.40;;;6.00;95.10;;;;;;5008436;28;20492;-81
2021/04/16 06:52:20;;;;;;;10.85;2.55;;;6.00;94.70;;;;;;5009706;28;20571;-82
2021/04/16 06:54:59;;;;;;;2.93;2.30;;;6.00;95.00;;;;;;5007176;28;20768;-82
2021/04/16 06:57:35;;;;;;;2.23;2.03;;;6.10;94.50;;;;;;5005198;28;20875;-81
2021/04/16 07:00:13;;;;;;;2.73;2.20;;;6.00;94.50;;;;;;5007906;28;20504;-82
2021/04/16 07:02:49;;;;;;;2.07;1.97;;;5.90;94.30;;;;;;5004827;28;20460;-82
2021/04/16 07:05:28;;;;;;;2.50;1.83;;;6.00;94.40;;;;;;5009468;28;20532;-81
2021/04/16 07:07:57;;;;;;;1.90;1.80;;;6.00;94.80;;;;;;5011133;28;20976;-82
2021/04/16 07:10:27;;;;;;;2.97;2.60;;;6.00;94.80;;;;;;5008171;28;20473;-82
2021/04/16 07:12:57;;;;;;;2.30;1.93;;;6.10;95.20;;;;;;5005540;28;20481;-83
2021/04/16 07:15:36;;;;;;;1.93;1.83;;;6.20;94.40;;;;;;5011084;28;20476;-83
2021/04/16 07:18:05;;;;;;;2.90;2.10;;;6.40;93.40;;;;;;5007330;28;20473;-82
2021/04/16 07:20:33;;;;;;;2.93;2.20;;;6.50;93.50;;;;;;5009493;28;20481;-84
2021/04/16 07:23:01;;;;;;;2.10;1.70;;;6.60;92.30;;;;;;5008356;28;20523;-84
2021/04/16 07:25:34;;;;;;;2.20;2.00;;;6.80;93.00;;;;;;5009295;28;20564;-83
2021/04/16 07:28:05;;;;;;;1.97;1.73;;;6.90;92.50;;;;;;5008706;28;20891;-83
2021/04/16 07:30:38;;;;;;;2.37;1.63;;;7.10;92.60;;;;;;5009308;28;21058;-85
2021/04/16 07:33:24;;;;;;;2.30;1.90;;;7.20;91.60;;;;;;5005876;28;20486;-83
2021/04/16 07:36:12;;;;;;;1.90;1.70;;;7.20;91.50;;;;;;5005496;28;21079;-82
2021/04/16 07:38:40;;;;;;;2.37;2.17;;;7.10;90.70;;;;;;4994179;28;20945;-83
2021/04/16 07:41:23;;;;;;;3.20;2.20;;;6.90;91.10;;;;;;5012423;28;20499;-82
2021/04/16 07:43:52;;;;;;;2.57;2.37;;;6.80;91.70;;;;;;5011622;28;20481;-83
2021/04/16 07:46:33;;;;;;;2.63;2.17;;;6.80;92.20;;;;;;5004951;28;21004;-82
2021/04/16 07:49:18;;;;;;;3.10;2.17;;;6.90;92.60;;;;;;4998738;28;20473;-82
2021/04/16 07:51:48;;;;;;;1.73;1.63;;;7.00;92.10;;;;;;5008678;28;20477;-83
2021/04/16 07:54:19;;;;;;;3.37;2.10;;;7.10;91.90;;;;;;5011453;28;20557;-82
2021/04/16 07:56:47;;;;;;;2.50;2.13;;;7.20;91.30;;;;;;5007740;28;22980;-81
2021/04/16 07:59:16;;;;;;;4.40;2.07;;;7.30;91.50;;;;;;5011918;28;20465;-83
2021/04/16 08:01:46;;;;;;;5.00;2.03;;;7.50;90.50;;;;;;5011423;28;20477;-82
2021/04/16 08:04:32;;;;;;;4.60;1.90;;;7.70;90.20;;;;;;5009846;28;20879;-82
2021/04/16 08:07:16;;;;;;;1.70;1.60;;;7.80;89.50;;;;;;5007925;28;20501;-82
2021/04/16 08:09:43;;;;;;;1.90;1.80;;;7.90;88.20;;;;;;5011594;28;20468;-83
2021/04/16 08:12:13;;;;;;;2.07;1.87;;;7.80;89.40;;;;;;5011139;28;20477;-83
2021/04/16 08:14:43;;;;;;;2.03;1.57;;;7.90;90.10;;;;;;5007683;28;20476;-84
2021/04/16 08:17:22;;;;;;;3.47;1.50;;;8.10;87.20;;;;;;5012880;28;20537;-85
2021/04/16 08:19:50;;;;;;;2.50;1.53;;;8.20;87.10;;;;;;5011002;28;20474;-82
2021/04/16 08:22:24;;;;;;;1.70;1.60;;;8.20;87.30;;;;;;5009323;28;20537;-81
2021/04/16 08:24:55;;;;;;;2.17;1.67;;;8.30;86.50;;;;;;5010200;28;20465;-83
2021/04/16 08:27:30;;;;;;;2.13;1.67;;;7.90;86.90;;;;;;5009868;28;20489;-84
2021/04/16 08:30:05;;;;;;;1.90;1.80;;;8.00;87.60;;;;;;5010299;28;20479;-81
2021/04/16 08:32:38;;;;;;;10.07;2.47;;;8.00;87.20;;;;;;5009205;28;20482;-83
2021/04/16 08:35:27;;;;;;;2.60;2.10;;;8.00;86.50;;;;;;5010197;28;20861;-84
2021/04/16 08:38:00;;;;;;;2.30;2.10;;;8.00;86.80;;;;;;5009504;28;20476;-86
2021/04/16 08:40:32;;;;;;;2.70;1.70;;;8.00;85.60;;;;;;5010219;28;21590;-82
2021/04/16 08:43:01;;;;;;;2.60;1.70;;;8.20;84.80;;;;;;5011567;28;20498;-83
2021/04/16 08:45:32;;;;;;;2.23;2.03;;;8.70;86.90;;;;;;5009253;28;20797;-83
2021/04/16 08:48:04;;;;;;;1.83;1.60;;;9.30;85.30;;;;;;5009546;28;20486;-82
2021/04/16 08:50:35;;;;;;;3.10;2.07;;;9.60;81.20;;;;;;5008672;28;20475;-82
2021/04/16 08:53:04;;;;;;;4.17;2.30;;;9.30;81.00;;;;;;5007187;28;20483;-83
2021/04/16 08:55:34;;;;;;;2.67;2.47;;;9.40;82.40;;;;;;5006216;28;21052;-84
2021/04/16 08:58:05;;;;;;;1.93;1.80;;;9.50;81.70;;;;;;5007591;28;20998;-83
2021/04/16 09:00:36;;;;;;;4.77;2.40;;;9.50;81.80;;;;;;5006249;28;21068;-84
2021/04/16 09:03:12;;;;;;;3.03;2.60;;;9.20;82.40;;;;;;5007536;28;20472;-84
2021/04/16 09:05:55;;;;;;;3.53;2.10;;;8.90;82.60;;;;;;5009094;28;20477;-84
2021/04/16 09:08:34;;;;;;;2.27;1.40;;;8.90;83.30;;;;;;5010975;28;20959;-83
2021/04/16 09:11:02;;;;;;;1.93;1.63;;;9.10;83.30;;;;;;5009139;28;20570;-83
2021/04/16 09:13:57;;;;;;;2.23;1.70;;;9.10;83.00;;;;;;5009361;28;20498;-85
2021/04/16 09:16:52;;;;;;;2.27;1.70;;;9.30;83.00;;;;;;5010305;28;20557;-84
2021/04/16 09:20:00;;;;;;;2.10;2.00;;;9.70;82.10;;;;;;5006363;28;20545;-84
2021/04/16 09:22:48;;;;;;;1.57;1.47;;;10.00;79.30;;;;;;5007538;28;20851;-84
2021/04/16 09:25:46;;;;;;;4.20;2.07;;;10.10;78.00;;;;;;5006313;28;20466;-83
2021/04/16 09:28:36;;;;;;;2.50;2.13;;;10.10;78.50;;;;;;4996038;28;21088;-83
2021/04/16 09:31:25;;;;;;;1.97;1.60;;;10.00;77.70;;;;;;4997823;28;20496;-83
2021/04/16 09:34:07;;;;;;;2.00;1.80;;;9.90;78.00;;;;;;5001381;28;20474;-85
2021/04/16 09:36:45;;;;;;;2.33;1.70;;;9.80;79.40;;;;;;5008150;28;20479;-84
2021/04/16 09:39:16;;;;;;;2.40;1.90;;;9.60;78.80;;;;;;5010963;28;20548;-83
2021/04/16 09:41:46;;;;;;;3.10;2.80;;;9.40;77.90;;;;;;4994879;28;20574;-84
2021/04/16 09:44:37;;;;;;;1.83;1.70;;;9.30;79.00;;;;;;4988821;28;20487;-85
2021/04/16 09:47:05;;;;;;;5.30;1.87;;;9.30;77.50;;;;;;4996827;28;20529;-83
2021/04/16 09:49:36;;;;;;;1.50;1.37;;;9.40;77.60;;;;;;5008374;28;20477;-85
2021/04/16 09:52:36;;;;;;;4.80;2.03;;;9.50;78.20;;;;;;4998360;28;21073;-85
2021/04/16 09:55:37;;;;;;;6.17;3.13;;;9.30;76.80;;;;;;4979642;28;20480;-83
2021/04/16 09:58:05;;;;;;;1.90;1.67;;;9.30;78.10;;;;;;4997844;28;20517;-83
2021/04/16 10:00:37;;;;;;;4.77;2.13;;;9.40;77.10;;;;;;4998326;28;21128;-84
2021/04/16 10:03:26;;;;;;;2.20;2.00;;;9.50;76.50;;;;;;4996758;28;20481;-84
2021/04/16 10:05:53;;;;;;;3.03;2.33;;;9.60;76.90;;;;;;5004426;28;20519;-84
2021/04/16 10:08:25;;;;;;;2.20;2.00;;;9.80;76.50;;;;;;5007692;28;21384;-82
2021/04/16 10:10:53;;;;;;;1.60;1.50;;;9.90;74.80;;;;;;5004495;28;20885;-85
2021/04/16 10:13:26;;;;;;;3.87;1.80;;;10.20;75.30;;;;;;4983023;28;20841;-85
2021/04/16 10:15:54;;;;;;;6.07;2.07;;;10.50;74.80;;;;;;5002459;28;21087;-84
2021/04/16 10:18:31;;;;;;;1.80;1.70;;;10.60;74.40;;;;;;5001174;28;20542;-84
2021/04/16 10:21:05;;;;;;;2.83;2.07;;;10.20;75.30;;;;;;5006090;28;20482;-85
2021/04/16 10:23:37;;;;;;;3.23;2.33;;;10.10;76.20;;;;;;4993896;28;20514;-83
2021/04/16 12:39:25;;;;;;;3.07;1.60;;;10.90;78.70;;;;;;4994491;28;20501;-84
2021/04/16 12:41:54;;;;;;;1.93;1.50;;;11.10;77.90;;;;;;5009269;28;20507;-85
2021/04/16 12:44:36;;;;;;;1.77;1.67;;;11.10;76.00;;;;;;5005478;28;20468;-83
2021/04/16 12:47:05;;;;;;;2.20;2.00;;;11.00;76.50;;;;;;4982851;28;20502;-86
2021/04/16 12:49:32;;;;;;;1.97;1.77;;;11.00;78.60;;;;;;4989047;28;21020;-85
2021/04/16 12:51:59;;;;;;;1.80;1.70;;;11.10;78.80;;;;;;4978458;28;20505;-85
2021/04/16 12:54:26;;;;;;;2.30;2.07;;;11.20;78.60;;;;;;4975815;28;20473;-85
2021/04/16 12:56:53;;;;;;;2.33;2.10;;;11.10;79.30;;;;;;4985379;28;20476;-85
2021/04/16 12:59:24;;;;;;;1.83;1.73;;;10.90;80.10;;;;;;4999441;28;20574;-86
2021/04/16 13:01:53;;;;;;;3.67;1.57;;;10.80;80.40;;;;;;5009208;28;20480;-85
2021/04/16 13:04:24;;;;;;;3.17;2.80;;;10.80;79.40;;;;;;5002142;28;20541;-85
2021/04/16 13:06:53;;;;;;;3.30;3.00;;;10.50;80.60;;;;;;5005916;28;20583;-85
2021/04/16 13:09:26;;;;;;;7.63;1.40;;;10.10;81.00;;;;;;5000084;28;20547;-86
2021/04/16 13:11:53;;;;;;;2.30;2.10;;;9.90;82.50;;;;;;4978687;28;20470;-87
2021/04/16 13:14:21;;;;;;;2.40;1.80;;;9.60;82.60;;;;;;5015700;28;20550;-85
2021/04/16 13:16:48;;;;;;;1.53;1.43;;;9.40;83.10;;;;;;5007230;28;20465;-85
2021/04/16 13:19:23;;;;;;;2.10;1.40;;;9.30;84.80;;;;;;4996546;28;20521;-86
2021/04/16 13:21:55;;;;;;;1.83;1.63;;;9.40;83.60;;;;;;5004084;28;20484;-85
2021/04/16 13:24:22;;;;;;;1.57;1.47;;;9.70;82.80;;;;;;4981783;28;20923;-87
2021/04/16 13:26:49;;;;;;;1.60;1.50;;;10.40;82.30;;;;;;5004079;28;20483;-85
2021/04/16 13:29:16;;;;;;;1.47;1.37;;;11.10;80.10;;;;;;5008881;28;20482;-83
2021/04/16 13:31:43;;;;;;;1.40;1.30;;;11.80;78.10;;;;;;4997438;28;21290;-84
2021/04/16 13:34:12;;;;;;;1.63;1.53;;;12.20;76.90;;;;;;5004117;28;20480;-85
2021/04/16 13:36:40;;;;;;;1.60;1.50;;;12.70;75.70;;;;;;5005921;28;20467;-86
2021/04/16 13:39:08;;;;;;;2.60;1.90;;;13.00;74.90;;;;;;5004518;28;20476;-84
2021/04/16 13:41:36;;;;;;;2.00;1.50;;;13.30;72.80;;;;;;4984659;28;20481;-85
2021/04/16 13:44:04;;;;;;;1.90;1.50;;;13.60;72.40;;;;;;4983180;28;20466;-84
2021/04/16 13:46:34;;;;;;;2.63;1.60;;;13.80;72.40;;;;;;4972417;28;21043;-82
2021/04/16 13:49:04;;;;;;;1.77;1.67;;;13.90;71.90;;;;;;4993696;28;20524;-85
2021/04/16 13:51:34;;;;;;;1.87;1.50;;;14.10;72.40;;;;;;4992556;28;20473;-85
2021/04/16 13:54:03;;;;;;;1.80;1.50;;;14.30;70.70;;;;;;4981022;28;20520;-85
2021/04/16 13:56:33;;;;;;;4.17;2.13;;;14.40;70.30;;;;;;4987045;28;20544;-85
2021/04/16 13:59:00;;;;;;;1.93;1.83;;;14.60;70.40;;;;;;4949597;28;20476;-86
2021/04/16 14:01:28;;;;;;;3.03;2.03;;;14.90;69.00;;;;;;4962678;28;20473;-85
2021/04/16 14:04:00;;;;;;;1.80;1.70;;;15.40;67.80;;;;;;4988850;28;20940;-85
2021/04/16 14:06:29;;;;;;;5.80;1.73;;;16.90;65.10;;;;;;5001325;28;20475;-85
2021/04/16 14:08:59;;;;;;;1.97;1.23;;;16.90;65.10;;;;;;5002555;28;20478;-84
2021/04/16 14:11:31;;;;;;;1.50;1.40;;;18.30;62.30;;;;;;5005915;28;20472;-86
2021/04/16 14:13:59;;;;;;;2.00;1.40;;;18.30;62.20;;;;;;5003335;28;20476;-86
2021/04/16 14:16:28;;;;;;;1.87;1.77;;;19.20;60.60;;;;;;4995833;28;20486;-86
2021/04/16 14:18:57;;;;;;;1.83;1.43;;;20.70;56.50;;;;;;5013793;28;20462;-86
2021/04/16 14:21:26;;;;;;;2.80;1.20;;;20.70;53.60;;;;;;5005993;28;20473;-85
2021/04/16 14:23:54;;;;;;;2.13;1.27;;;19.50;57.00;;;;;;5001910;28;20464;-86
2021/04/16 14:26:22;;;;;;;1.30;1.20;;;19.00;58.10;;;;;;4987472;28;20475;-86
2021/04/16 14:28:50;;;;;;;1.70;1.40;;;17.90;57.80;;;;;;4991386;28;20468;-86
2021/04/16 14:31:17;;;;;;;1.57;1.40;;;16.80;61.40;;;;;;4992557;28;20473;-85
2021/04/16 14:33:45;;;;;;;1.60;1.50;;;16.00;62.70;;;;;;4985859;28;20521;-85
2021/04/16 14:36:32;;;;;;;1.90;1.60;;;15.50;64.20;;;;;;4995314;28;20474;-85
2021/04/16 14:38:59;;;;;;;2.27;1.30;;;14.30;65.30;;;;;;4962901;28;20482;-85
2021/04/16 14:41:30;;;;;;;3.43;1.97;;;13.60;67.50;;;;;;4978291;28;21103;-84
2021/04/16 14:44:00;;;;;;;3.70;1.70;;;13.00;69.10;;;;;;4985520;28;21001;-84
2021/04/16 14:46:27;;;;;;;1.60;1.50;;;12.80;71.80;;;;;;4996475;28;20496;-85
2021/04/16 14:48:54;;;;;;;1.80;1.50;;;12.80;71.30;;;;;;5006165;28;20480;-85
2021/04/16 14:51:27;;;;;;;2.13;1.93;;;12.60;72.70;;;;;;5005737;28;20473;-85
2021/04/16 14:53:58;;;;;;;2.07;1.87;;;12.40;71.70;;;;;;4998473;28;20840;-84
2021/04/16 14:56:26;;;;;;;1.70;1.60;;;12.20;73.60;;;;;;5005292;28;20474;-85
2021/04/16 14:59:01;;;;;;;4.27;1.73;;;12.20;74.40;;;;;;4983749;28;20477;-85
2021/04/16 15:01:30;;;;;;;3.73;1.60;;;12.10;73.30;;;;;;4991963;28;20477;-87
2021/04/16 15:03:58;;;;;;;1.67;1.50;;;12.10;74.90;;;;;;5000153;28;20461;-84
2021/04/16 15:06:35;;;;;;;2.10;1.90;;;12.20;74.90;;;;;;4995674;28;20477;-84
2021/04/16 15:09:15;;;;;;;1.87;1.77;;;12.40;73.60;;;;;;4987593;28;20477;-84
2021/04/16 15:11:47;;;;;;;2.63;1.90;;;12.50;72.70;;;;;;4999967;28;20545;-84
2021/04/16 15:14:19;;;;;;;2.40;1.70;;;12.50;73.10;;;;;;4994619;28;20509;-86
2021/04/16 15:16:48;;;;;;;5.23;1.80;;;12.50;72.30;;;;;;4994977;28;20571;-85
2021/04/16 15:19:27;;;;;;;2.03;1.70;;;12.20;73.60;;;;;;5002543;28;20934;-86
2021/04/16 15:21:54;;;;;;;2.87;1.80;;;12.20;75.20;;;;;;5002987;28;20479;-85
2021/04/16 15:24:21;;;;;;;2.30;2.10;;;12.20;73.60;;;;;;5004588;28;20563;-84
2021/04/16 15:26:48;;;;;;;3.13;2.40;;;12.20;74.30;;;;;;4966317;28;20569;-84